createdAt,value
2018-02-09T00:01:30.060Z,29.67
2018-02-09T00:03:56.452Z,30.33
2018-02-09T00:06:22.877Z,29.00
2018-02-09T00:08:49.368Z,32.23
2018-02-09T00:11:16.127Z,34.17
2018-02-09T00:13:42.645Z,33.30
2018-02-09T00:16:09.037Z,33.07
2018-02-09T00:18:35.744Z,34.47
2018-02-09T00:21:02.133Z,35.03
2018-02-09T00:23:28.600Z,33.17
2018-02-09T00:25:55.242Z,38.77
2018-02-09T00:28:21.775Z,43.70
2018-02-09T00:30:48.209Z,37.50
2018-02-09T00:33:14.730Z,39.13
2018-02-09T00:35:41.419Z,36.90
2018-02-09T00:38:07.917Z,38.30
2018-02-09T00:40:34.556Z,42.80
2018-02-09T00:43:01.194Z,42.00
2018-02-09T00:45:27.832Z,42.50
2018-02-09T00:47:54.264Z,46.77
2018-02-09T00:50:20.680Z,48.13
2018-02-09T00:52:47.165Z,53.10
2018-02-09T00:55:13.615Z,48.67
2018-02-09T00:57:40.101Z,51.87
2018-02-09T01:00:06.721Z,44.53
2018-02-09T01:02:33.361Z,51.77
2018-02-09T01:04:59.912Z,43.30
2018-02-09T01:07:26.340Z,39.33
2018-02-09T01:09:52.865Z,38.60
2018-02-09T01:12:19.507Z,37.33
2018-02-09T01:14:45.917Z,37.53
2018-02-09T01:17:12.477Z,35.53
2018-02-09T01:19:38.853Z,31.53
2018-02-09T01:22:05.355Z,30.20
2018-02-09T01:24:32.049Z,28.53
2018-02-09T01:26:58.450Z,27.30
2018-02-09T01:29:24.962Z,25.33
2018-02-09T01:31:51.502Z,26.20
2018-02-09T01:34:17.934Z,24.43
2018-02-09T01:36:44.353Z,26.37
2018-02-09T01:39:10.900Z,29.03
2018-02-09T01:41:37.436Z,28.40
2018-02-09T01:44:03.972Z,27.20
2018-02-09T01:46:30.388Z,34.63
2018-02-09T01:48:57.043Z,26.83
2018-02-09T01:51:23.886Z,26.93
2018-02-09T01:53:50.306Z,26.37
2018-02-09T01:56:16.753Z,28.10
2018-02-09T01:58:43.392Z,27.90
2018-02-09T02:01:09.909Z,27.70
2018-02-09T02:03:36.462Z,30.50
2018-02-09T02:06:02.965Z,29.97
2018-02-09T02:08:29.413Z,33.70
2018-02-09T02:10:55.969Z,28.80
2018-02-09T02:13:22.720Z,33.37
2018-02-09T02:15:49.184Z,31.17
2018-02-09T02:18:15.797Z,33.37
2018-02-09T02:20:42.296Z,32.83
2018-02-09T02:23:08.968Z,31.57
2018-02-09T02:25:35.370Z,31.00
2018-02-09T02:28:01.704Z,29.53
2018-02-09T02:30:28.102Z,33.27
2018-02-09T02:32:54.456Z,32.70
2018-02-09T02:35:21.020Z,31.57
2018-02-09T02:37:47.401Z,29.97
2018-02-09T02:40:13.757Z,29.87
2018-02-09T02:42:40.090Z,35.10
2018-02-09T02:45:06.477Z,30.27
2018-02-09T02:47:32.819Z,29.07
2018-02-09T02:49:59.180Z,29.67
2018-02-09T02:52:25.576Z,26.47
2018-02-09T02:54:51.908Z,29.80
2018-02-09T02:57:18.241Z,25.50
2018-02-09T02:59:44.664Z,24.53
2018-02-09T03:02:11.026Z,26.40
2018-02-09T03:04:37.372Z,27.43
2018-02-09T03:07:03.745Z,23.13
2018-02-09T03:09:30.085Z,23.00
2018-02-09T03:11:56.465Z,21.80
2018-02-09T03:14:22.842Z,20.10
2018-02-09T03:16:49.208Z,22.97
2018-02-09T03:19:15.664Z,22.83
2018-02-09T03:21:42.044Z,19.30
2018-02-09T03:24:08.372Z,26.07
2018-02-09T03:26:34.705Z,26.03
2018-02-09T03:29:01.115Z,22.67
2018-02-09T03:31:27.432Z,19.80
2018-02-09T03:33:53.776Z,21.20
2018-02-09T03:36:20.124Z,24.43
2018-02-09T03:38:46.468Z,24.73
2018-02-09T03:41:12.805Z,22.93
2018-02-09T03:43:39.362Z,22.50
2018-02-09T03:46:05.733Z,18.57
2018-02-09T03:48:32.065Z,22.97
2018-02-09T03:50:58.420Z,18.53
2018-02-09T03:53:24.812Z,23.30
2018-02-09T03:55:51.141Z,22.60
2018-02-09T03:58:17.476Z,22.77
2018-02-09T04:00:44.032Z,21.13
2018-02-09T04:03:10.348Z,21.67
2018-02-09T04:05:36.692Z,24.20
2018-02-09T04:08:03.033Z,23.27
2018-02-09T04:10:29.356Z,21.30
2018-02-09T04:12:55.772Z,21.37
2018-02-09T04:15:22.177Z,19.83
2018-02-09T04:17:48.552Z,21.70
2018-02-09T04:20:15.089Z,20.53
2018-02-09T04:22:41.405Z,23.50
2018-02-09T04:25:07.756Z,23.00
2018-02-09T04:27:34.137Z,25.50
2018-02-09T04:30:00.473Z,22.07
2018-02-09T04:32:26.820Z,28.23
2018-02-09T04:34:53.328Z,25.60
2018-02-09T04:37:19.683Z,24.17
2018-02-09T04:39:46.017Z,28.43
2018-02-09T04:42:12.380Z,29.30
2018-02-09T04:44:38.688Z,26.87
2018-02-09T04:47:05.012Z,42.27
2018-02-09T04:49:31.396Z,38.57
2018-02-09T04:51:57.730Z,31.27
2018-02-09T04:54:24.072Z,36.87
2018-02-09T04:56:50.720Z,36.43
2018-02-09T04:59:17.068Z,39.90
2018-02-09T05:01:43.404Z,37.73
2018-02-09T05:04:09.804Z,38.40
2018-02-09T05:06:36.141Z,39.73
2018-02-09T05:09:02.569Z,40.33
2018-02-09T05:11:28.975Z,39.27
2018-02-09T05:13:55.292Z,39.33
2018-02-09T05:16:21.619Z,47.43
2018-02-09T05:18:48.004Z,43.60
2018-02-09T05:21:14.333Z,54.53
2018-02-09T05:23:40.685Z,63.37
2018-02-09T05:26:07.374Z,71.87
2018-02-09T05:28:33.736Z,72.67
2018-02-09T05:31:00.117Z,79.13
2018-02-09T05:33:26.485Z,64.43
2018-02-09T05:35:52.848Z,63.87
2018-02-09T05:38:19.188Z,71.77
2018-02-09T05:40:45.588Z,79.43
2018-02-09T05:43:11.926Z,82.30
2018-02-09T05:45:38.252Z,79.30
2018-02-09T05:48:04.669Z,90.83
2018-02-09T05:50:31.025Z,101.20
2018-02-09T05:52:57.383Z,103.07
2018-02-09T05:55:23.734Z,96.57
2018-02-09T05:57:50.110Z,88.57
2018-02-09T06:00:16.461Z,99.13
2018-02-09T06:02:42.808Z,94.70
2018-02-09T06:05:09.237Z,97.20
2018-02-09T06:07:35.568Z,102.17
2018-02-09T06:10:02.073Z,107.63
2018-02-09T06:12:28.820Z,97.23
2018-02-09T06:14:55.349Z,96.37
2018-02-09T06:17:21.942Z,93.17
2018-02-09T06:19:48.331Z,82.77
2018-02-09T06:22:14.690Z,80.03
2018-02-09T06:24:41.376Z,78.40
2018-02-09T06:27:08.008Z,87.43
2018-02-09T06:29:34.356Z,79.60
2018-02-09T06:32:00.762Z,85.73
2018-02-09T06:34:27.117Z,98.60
2018-02-09T06:36:53.473Z,100.77
2018-02-09T06:39:19.916Z,100.60
2018-02-09T06:41:46.276Z,109.27
2018-02-09T06:44:12.657Z,115.17
2018-02-09T06:46:39.173Z,121.30
2018-02-09T06:49:05.573Z,125.70
2018-02-09T06:51:32.191Z,133.20
2018-02-09T06:53:58.560Z,130.87
2018-02-09T06:56:24.896Z,147.03
2018-02-09T06:58:51.225Z,140.80
2018-02-09T07:01:17.632Z,133.47
2018-02-09T07:03:43.976Z,130.03
2018-02-09T07:06:10.298Z,133.23
2018-02-09T07:08:36.649Z,135.77
2018-02-09T07:11:02.984Z,139.83
2018-02-09T07:13:29.369Z,138.60
2018-02-09T07:15:55.745Z,154.83
2018-02-09T07:18:22.109Z,158.80
2018-02-09T07:20:48.624Z,154.10
2018-02-09T07:23:14.981Z,156.70
2018-02-09T07:25:41.334Z,153.87
2018-02-09T07:28:08.157Z,144.20
2018-02-09T07:30:34.504Z,140.70
2018-02-09T07:33:00.868Z,144.33
2018-02-09T07:35:27.249Z,122.17
2018-02-09T07:37:53.600Z,111.73
2018-02-09T07:40:19.955Z,102.20
2018-02-09T07:42:46.327Z,102.40
2018-02-09T07:45:12.673Z,105.37
2018-02-09T07:47:39.065Z,101.47
2018-02-09T07:50:05.417Z,100.53
2018-02-09T07:52:31.831Z,86.43
2018-02-09T07:54:58.196Z,69.77
2018-02-09T07:57:24.600Z,56.87
2018-02-09T07:59:50.945Z,54.33
2018-02-09T08:02:17.344Z,59.80
2018-02-09T08:04:43.705Z,55.03
2018-02-09T08:07:10.069Z,47.80
2018-02-09T08:09:36.603Z,34.57
2018-02-09T08:12:02.961Z,23.80
2018-02-09T08:14:29.312Z,14.97
2018-02-09T08:16:55.693Z,13.57
2018-02-09T08:19:22.072Z,7.97
2018-02-09T08:21:48.708Z,21.50
2018-02-09T08:24:15.113Z,14.67
2018-02-09T08:26:41.448Z,10.60
2018-02-09T08:29:07.776Z,15.07
2018-02-09T08:31:34.172Z,10.33
2018-02-09T08:34:00.501Z,13.43
2018-02-09T08:36:26.880Z,11.27
2018-02-09T08:38:53.506Z,13.80
2018-02-09T08:41:19.865Z,8.53
2018-02-09T08:43:46.220Z,7.00
2018-02-09T08:46:12.617Z,8.37
2018-02-09T08:48:39.037Z,7.77
2018-02-09T08:51:05.381Z,7.67
2018-02-09T08:53:31.925Z,8.43
2018-02-09T08:55:58.448Z,13.73
2018-02-09T08:58:25.018Z,10.90
2018-02-09T09:00:51.857Z,7.20
2018-02-09T09:03:18.820Z,8.20
2018-02-09T09:05:45.542Z,14.57
2018-02-09T09:08:12.240Z,12.17
2018-02-09T09:10:39.981Z,13.17
2018-02-09T09:13:06.840Z,6.53
2018-02-09T09:15:33.649Z,7.23
2018-02-09T09:18:00.366Z,5.90
2018-02-09T09:20:26.915Z,7.80
2018-02-09T09:22:53.672Z,7.63
2018-02-09T09:25:20.300Z,6.67
2018-02-09T09:27:47.007Z,7.33
2018-02-09T09:30:13.608Z,5.47
2018-02-09T09:32:40.174Z,8.07
2018-02-09T09:35:06.680Z,6.67
2018-02-09T09:37:35.830Z,6.83
2018-02-09T09:40:02.634Z,8.67
2018-02-09T09:42:30.357Z,8.33
2018-02-09T09:44:57.078Z,6.60
2018-02-09T09:47:23.632Z,8.77
2018-02-09T09:49:52.393Z,8.37
2018-02-09T09:52:20.714Z,7.60
2018-02-09T09:54:47.573Z,7.43
2018-02-09T09:57:14.262Z,12.73
2018-02-09T09:59:41.159Z,8.87
2018-02-09T10:02:07.812Z,7.80
2018-02-09T10:04:34.663Z,10.80
2018-02-09T10:07:01.289Z,9.70
2018-02-09T10:09:28.112Z,8.60
2018-02-09T10:11:54.827Z,7.20
2018-02-09T10:14:22.177Z,9.87
2018-02-09T10:16:48.784Z,7.53
2018-02-09T10:19:15.434Z,8.20
2018-02-09T10:21:42.847Z,7.07
2018-02-09T10:24:09.782Z,8.97
2018-02-09T10:26:36.303Z,8.03
2018-02-09T10:29:03.008Z,8.93
2018-02-09T10:31:30.062Z,7.67
2018-02-09T10:34:00.551Z,7.97
2018-02-09T10:36:27.442Z,9.57
2018-02-09T10:38:54.155Z,6.90
2018-02-09T10:41:20.841Z,8.33
2018-02-09T10:43:47.686Z,10.13
2018-02-09T10:46:14.525Z,9.27
2018-02-09T10:48:41.414Z,12.07
2018-02-09T10:53:41.986Z,8.30
2018-02-09T10:56:08.638Z,8.00
2018-02-09T10:58:35.376Z,13.73
2018-02-09T11:01:02.758Z,9.67
2018-02-09T11:03:29.818Z,7.63
2018-02-09T11:05:57.044Z,9.43
2018-02-09T11:08:24.146Z,7.47
2018-02-09T11:10:51.368Z,7.23
2018-02-09T11:13:19.351Z,7.20
2018-02-09T11:15:46.249Z,6.73
2018-02-09T11:18:13.831Z,6.23
2018-02-09T11:20:41.326Z,8.47
2018-02-09T11:23:08.222Z,8.90
2018-02-09T11:25:35.184Z,8.77
2018-02-09T11:28:01.916Z,9.10
2018-02-09T11:33:02.164Z,8.97
2018-02-09T11:35:28.991Z,8.60
2018-02-09T11:37:56.122Z,10.20
2018-02-09T11:40:23.138Z,18.87
2018-02-09T11:42:50.080Z,11.80
2018-02-09T11:45:17.007Z,17.47
2018-02-09T11:47:43.692Z,24.40
2018-02-09T11:50:10.491Z,15.10
2018-02-09T11:52:37.235Z,17.40
2018-02-09T11:55:04.875Z,18.70
2018-02-09T11:57:32.351Z,17.30
2018-02-09T12:00:00.300Z,18.30
2018-02-09T12:02:27.061Z,15.90
2018-02-09T12:04:53.712Z,15.73
2018-02-09T12:07:20.311Z,10.07
2018-02-09T12:09:47.036Z,8.93
2018-02-09T12:12:14.056Z,9.90
2018-02-09T12:14:40.962Z,9.00
2018-02-09T12:17:07.596Z,10.70
2018-02-09T12:19:34.580Z,8.53
2018-02-09T12:22:01.478Z,9.43
2018-02-09T12:24:28.300Z,11.77
2018-02-09T12:26:55.162Z,10.23
2018-02-09T12:29:22.076Z,12.17
2018-02-09T12:31:48.748Z,8.90
2018-02-09T12:34:15.772Z,9.37
2018-02-09T12:36:42.435Z,10.77
2018-02-09T12:39:09.198Z,9.17
2018-02-09T12:41:35.909Z,8.13
2018-02-09T12:44:02.772Z,11.73
2018-02-09T12:46:29.771Z,9.30
2018-02-09T12:48:56.464Z,13.50
2018-02-09T12:51:23.148Z,12.73
2018-02-09T12:53:50.198Z,11.73
2018-02-09T12:56:16.885Z,10.90
2018-02-09T12:58:43.745Z,10.60
2018-02-09T13:01:10.712Z,12.30
2018-02-09T13:03:37.603Z,12.00
2018-02-09T13:06:05.876Z,10.03
2018-02-09T13:11:06.511Z,12.70
2018-02-09T13:13:33.410Z,12.90
2018-02-09T13:16:00.201Z,9.33
2018-02-09T13:18:39.334Z,8.27
2018-02-09T13:21:06.087Z,11.50
2018-02-09T13:23:45.047Z,12.30
2018-02-09T13:26:11.823Z,11.23
2018-02-09T13:28:50.991Z,9.90
2018-02-09T13:31:17.866Z,8.07
2018-02-09T13:33:44.752Z,10.13
2018-02-09T13:36:14.709Z,7.53
2018-02-09T13:38:41.871Z,7.87
2018-02-09T13:41:08.488Z,12.07
2018-02-09T13:43:35.433Z,9.13
2018-02-09T13:46:04.086Z,9.83
2018-02-09T13:48:31.233Z,9.23
2018-02-09T13:50:58.335Z,11.27
2018-02-09T13:53:26.184Z,9.13
2018-02-09T13:55:54.032Z,12.27
2018-02-09T13:58:21.143Z,14.63
2018-02-09T14:00:48.932Z,12.37
2018-02-09T14:03:15.683Z,11.37
2018-02-09T14:05:42.399Z,13.30
2018-02-09T14:08:09.007Z,10.03
2018-02-09T14:10:35.895Z,11.63
2018-02-09T14:13:02.657Z,12.67
2018-02-09T14:15:29.353Z,8.67
2018-02-09T14:17:56.241Z,6.63
2018-02-09T14:20:22.984Z,4.63
2018-02-09T14:22:53.678Z,6.90
2018-02-09T14:25:21.240Z,6.57
2018-02-09T14:27:48.385Z,5.30
2018-02-09T14:30:15.975Z,8.00
2018-02-09T14:32:42.672Z,8.00
2018-02-09T14:35:10.318Z,6.20
2018-02-09T14:37:38.013Z,7.63
2018-02-09T14:40:04.931Z,7.57
2018-02-09T14:42:31.827Z,6.20
2018-02-09T14:44:58.624Z,8.37
2018-02-09T14:47:25.254Z,5.73
2018-02-09T14:49:52.023Z,5.87
2018-02-09T14:52:18.631Z,13.77
2018-02-09T14:54:45.310Z,11.90
2018-02-09T14:57:12.164Z,10.73
2018-02-09T14:59:42.186Z,12.90
2018-02-09T15:02:09.386Z,7.60
2018-02-09T15:04:37.518Z,8.97
2018-02-09T15:07:06.041Z,9.60
2018-02-09T15:09:33.599Z,10.87
2018-02-09T15:12:01.518Z,12.77
2018-02-09T15:14:28.018Z,8.77
2018-02-09T15:16:54.665Z,9.17
2018-02-09T15:19:21.365Z,9.23
2018-02-09T15:21:47.737Z,10.67
2018-02-09T15:24:14.201Z,12.63
2018-02-09T15:26:40.612Z,10.73
2018-02-09T15:29:06.965Z,11.87
2018-02-09T15:31:33.348Z,10.77
2018-02-09T15:33:59.764Z,11.27
2018-02-09T15:36:26.256Z,16.17
2018-02-09T15:38:52.690Z,15.83
2018-02-09T15:41:19.080Z,16.43
2018-02-09T15:43:45.497Z,18.23
2018-02-09T15:46:11.870Z,23.07
2018-02-09T15:48:38.452Z,22.03
2018-02-09T15:51:04.928Z,23.50
2018-02-09T15:53:31.517Z,22.87
2018-02-09T15:55:57.974Z,30.63
2018-02-09T15:58:24.375Z,31.93
2018-02-09T16:00:50.767Z,30.33
2018-02-09T16:03:17.169Z,35.30
2018-02-09T16:05:43.672Z,41.07
2018-02-09T16:08:10.125Z,48.07
2018-02-09T16:10:37.396Z,39.70
2018-02-09T16:13:03.848Z,43.07
2018-02-09T16:15:30.213Z,43.53
2018-02-09T16:17:56.734Z,60.50
2018-02-09T16:20:23.093Z,66.07
2018-02-09T16:22:49.501Z,91.17
2018-02-09T16:25:15.922Z,82.83
2018-02-09T16:27:42.377Z,76.60
2018-02-09T16:30:08.757Z,77.50
2018-02-09T16:32:35.196Z,73.53
2018-02-09T16:35:01.620Z,72.30
2018-02-09T16:37:27.996Z,81.07
2018-02-09T16:39:54.392Z,76.37
2018-02-09T16:42:20.753Z,82.70
2018-02-09T16:44:47.182Z,82.97
2018-02-09T16:47:13.585Z,73.97
2018-02-09T16:49:40.000Z,90.27
2018-02-09T16:52:06.457Z,103.53
2018-02-09T16:54:32.885Z,93.00
2018-02-09T16:56:59.273Z,85.57
2018-02-09T16:59:25.696Z,83.93
2018-02-09T17:01:52.234Z,61.83
2018-02-09T17:04:18.628Z,44.03
2018-02-09T17:06:45.000Z,45.30
2018-02-09T17:09:11.461Z,38.40
2018-02-09T17:11:37.872Z,34.93
2018-02-09T17:14:04.261Z,40.90
2018-02-09T17:16:30.749Z,39.87
2018-02-09T17:18:57.153Z,44.33
2018-02-09T17:21:23.539Z,44.50
2018-02-09T17:23:49.932Z,37.27
2018-02-09T17:26:16.316Z,40.63
2018-02-09T17:28:42.794Z,38.77
2018-02-09T17:31:09.211Z,41.60
2018-02-09T17:33:35.655Z,45.23
2018-02-09T17:36:02.156Z,45.67
2018-02-09T17:38:28.511Z,43.07
2018-02-09T17:40:54.865Z,42.90
2018-02-09T17:43:21.351Z,45.47
2018-02-09T17:45:47.730Z,49.63
2018-02-09T17:48:14.156Z,42.33
2018-02-09T17:50:40.525Z,56.43
2018-02-09T17:53:07.004Z,61.77
2018-02-09T17:55:33.391Z,73.40
2018-02-09T17:58:00.623Z,76.93
2018-02-09T18:00:27.028Z,77.37
2018-02-09T18:02:53.420Z,86.27
2018-02-09T18:05:19.846Z,67.23
2018-02-09T18:07:46.216Z,71.70
2018-02-09T18:10:12.577Z,55.80
2018-02-09T18:12:39.057Z,55.67
2018-02-09T18:15:05.515Z,57.00
2018-02-09T18:17:31.924Z,52.43
2018-02-09T18:19:58.405Z,56.47
2018-02-09T18:22:24.752Z,69.73
2018-02-09T18:24:51.917Z,71.30
2018-02-09T18:27:18.367Z,79.57
2018-02-09T18:29:44.748Z,116.80
2018-02-09T18:32:11.120Z,141.63
2018-02-09T18:34:37.595Z,150.33
2018-02-09T18:37:03.997Z,141.07
2018-02-09T18:39:30.362Z,102.23
2018-02-09T18:41:56.724Z,77.80
2018-02-09T18:44:23.102Z,73.23
2018-02-09T18:46:49.495Z,65.93
2018-02-09T18:49:15.921Z,60.30
2018-02-09T18:51:43.243Z,60.00
2018-02-09T18:54:09.609Z,63.67
2018-02-09T18:56:35.980Z,57.33
2018-02-09T18:59:02.362Z,53.67
2018-02-09T19:01:28.771Z,52.90
2018-02-09T19:03:55.782Z,52.77
2018-02-09T19:06:22.180Z,53.67
2018-02-09T19:08:48.842Z,53.20
2018-02-09T19:11:15.306Z,48.03
2018-02-09T19:13:41.685Z,44.50
2018-02-09T19:16:08.066Z,47.13
2018-02-09T19:18:34.581Z,48.17
2018-02-09T19:21:00.989Z,59.97
2018-02-09T19:23:28.816Z,102.93
2018-02-09T19:25:55.233Z,101.07
2018-02-09T19:28:21.600Z,89.10
2018-02-09T19:30:47.998Z,96.90
2018-02-09T19:33:14.437Z,103.37
2018-02-09T19:35:40.805Z,114.50
2018-02-09T19:38:07.206Z,108.37
2018-02-09T19:40:34.329Z,107.67
2018-02-09T19:43:00.824Z,106.73
2018-02-09T19:45:27.640Z,105.07
2018-02-09T19:47:54.006Z,66.73
2018-02-09T19:50:20.378Z,57.27
2018-02-09T19:52:46.858Z,39.63
2018-02-09T19:55:13.352Z,35.33
2018-02-09T19:57:39.708Z,29.70
2018-02-09T20:00:06.118Z,25.47
2018-02-09T20:02:32.548Z,23.87
2018-02-09T20:04:58.920Z,23.10
2018-02-09T20:07:25.320Z,22.60
2018-02-09T20:09:51.684Z,23.30
2018-02-09T20:12:18.081Z,22.97
2018-02-09T20:14:44.482Z,24.67
2018-02-09T20:17:10.846Z,22.90
2018-02-09T20:19:37.265Z,22.77
2018-02-09T20:22:03.765Z,22.70
2018-02-09T20:24:30.180Z,23.00
2018-02-09T20:26:57.194Z,31.07
2018-02-09T20:29:23.582Z,20.70
2018-02-09T20:31:49.980Z,27.40
2018-02-09T20:34:16.397Z,27.90
2018-02-09T20:36:42.759Z,27.30
2018-02-09T20:39:09.113Z,22.93
2018-02-09T20:41:35.465Z,25.77
2018-02-09T20:44:01.851Z,23.40
2018-02-09T20:46:28.310Z,22.83
2018-02-09T20:48:54.726Z,19.40
2018-02-09T20:51:21.258Z,20.20
2018-02-09T20:53:47.657Z,16.47
2018-02-09T20:56:14.123Z,17.33
2018-02-09T20:58:40.493Z,19.20
2018-02-09T21:01:06.871Z,21.17
2018-02-09T21:03:33.304Z,18.13
2018-02-09T21:06:00.245Z,20.87
2018-02-09T21:08:27.316Z,17.13
2018-02-09T21:10:53.815Z,20.07
2018-02-09T21:13:20.201Z,20.00
2018-02-09T21:15:46.566Z,19.27
2018-02-09T21:18:12.959Z,23.80
2018-02-09T21:20:39.328Z,18.10
2018-02-09T21:23:05.694Z,20.53
2018-02-09T21:25:32.099Z,20.10
2018-02-09T21:27:58.456Z,20.63
2018-02-09T21:30:24.818Z,19.07
2018-02-09T21:32:51.196Z,19.90
2018-02-09T21:35:17.565Z,23.53
2018-02-09T21:37:43.965Z,20.40
2018-02-09T21:40:10.338Z,21.20
2018-02-09T21:42:36.681Z,20.00
2018-02-09T21:45:03.120Z,20.57
2018-02-09T21:47:29.493Z,20.13
2018-02-09T21:49:55.852Z,22.27
2018-02-09T21:52:22.253Z,21.13
2018-02-09T21:54:48.618Z,18.90
2018-02-09T21:57:14.961Z,22.13
2018-02-09T21:59:41.367Z,22.90
2018-02-09T22:02:07.756Z,21.97
2018-02-09T22:04:34.161Z,23.00
2018-02-09T22:07:00.617Z,20.60
2018-02-09T22:09:29.177Z,18.93
2018-02-09T22:11:56.509Z,20.83
2018-02-09T22:14:24.406Z,18.93
2018-02-09T22:16:51.648Z,19.10
2018-02-09T22:19:18.221Z,21.40
2018-02-09T22:21:45.552Z,20.70
2018-02-09T22:24:13.386Z,20.97
2018-02-09T22:26:39.744Z,22.17
2018-02-09T22:29:06.121Z,19.50
2018-02-09T22:31:32.560Z,21.57
2018-02-09T22:33:58.977Z,24.23
2018-02-09T22:36:25.347Z,25.87
2018-02-09T22:38:51.738Z,22.27
2018-02-09T22:41:18.094Z,24.57
2018-02-09T22:43:44.496Z,22.10
2018-02-09T22:46:10.848Z,35.40
2018-02-09T22:48:38.209Z,34.53
2018-02-09T22:51:07.102Z,35.00
2018-02-09T22:53:34.697Z,33.47
2018-02-09T22:56:01.739Z,26.70
2018-02-09T22:58:28.187Z,30.03
2018-02-09T23:00:54.890Z,23.00
2018-02-09T23:03:22.262Z,27.17
2018-02-09T23:05:48.835Z,23.97
2018-02-09T23:08:15.312Z,27.60
2018-02-09T23:10:41.764Z,23.93
2018-02-09T23:13:08.164Z,23.80
2018-02-09T23:15:34.608Z,23.73
2018-02-09T23:18:01.084Z,21.23
2018-02-09T23:20:27.711Z,22.57
2018-02-09T23:22:56.238Z,15.73
2018-02-09T23:25:24.333Z,18.40
2018-02-09T23:27:50.778Z,14.67
2018-02-09T23:30:21.332Z,17.97
2018-02-09T23:32:48.713Z,16.03
2018-02-09T23:35:15.067Z,14.83
2018-02-09T23:37:41.474Z,16.17
2018-02-09T23:40:07.829Z,16.27
2018-02-09T23:42:34.196Z,15.40
2018-02-09T23:45:00.746Z,16.30
2018-02-09T23:47:27.114Z,14.80
2018-02-09T23:49:55.983Z,16.70
2018-02-09T23:52:22.424Z,13.93
2018-02-09T23:54:49.339Z,15.00
2018-02-09T23:57:21.037Z,13.03
2018-02-09T23:59:49.946Z,13.67
